EmailTwitter


Observations de surface / Québec / CYQB (71714)

Régions: Québec | Canada | États-Unis | Europe | France | UK | Ailleurs
Station
Affichage
Infos & localisation pour CYQB (71714) | Aide pour décoder les METARs

Observations prises le 2019-09-22 à 18H00 UTC à QUEBEC A, QB (CYQB)

Etat du ciel: couvert.

Température: 24.0 Celsius

Point de rosée: 17.0 Celsius

Humidité relative: 65%

Indice Humidex: 29.

Vents: Ouest-sud-ouest à 15 km/h ou 8 noeuds.

Pression au niveau moyen de la mer: 101.16 kilopascals.

Calage altimétrique: 101.15 kilopascals ou 29.87 pouces de mercure.

Visibilité horizontale: 30.00 milles terrestres ou 48.00 kilomètres.

Hauteur du plafond: 1219 mètres ( 4000 pieds ).

Observation METAR:

CYQB 221800Z 25008KT 30SM BKN040 OVC082 24/17 A2987 RMK SC5AC3 SLP116 DENSITY

ALT 1400FT=